Time;durP1;ratioP1;P1;durP2;ratioP2;P2;SDS_P1;SDS_P2;PMS_P1;PMS_P2;Temp;Humidity;BMP_temperature;BMP_pressure;BME280_temperature;BME280_humidity;BME280_pressure;Samples;Min_cycle;Max_cycle;Signal;HPM_P1;HPM_P2
2024/01/28 00:00:42;;;;;;;;;;;-1.30;99.90;;;;;;5021982;28;20179;-69
2024/01/28 00:03:08;;;;;;;;;;;-1.30;99.90;;;;;;5011176;28;19953;-70
2024/01/28 00:05:36;;;;;;;;;;;-1.30;99.90;;;;;;5015340;28;20001;-69
2024/01/28 00:08:04;;;;;;;;;;;-1.40;99.90;;;;;;5028853;28;19980;-70
2024/01/28 00:10:32;;;;;;;;;;;-1.30;99.90;;;;;;5009151;28;19922;-71
2024/01/28 00:12:58;;;;;;;;;;;-1.30;99.90;;;;;;5011676;28;19921;-70
2024/01/28 00:15:25;;;;;;;;;;;-1.30;99.90;;;;;;5022936;28;19984;-71
2024/01/28 00:17:54;;;;;;;;;;;-1.40;99.90;;;;;;5017787;28;19925;-70
2024/01/28 00:20:21;;;;;;;;;;;-1.40;99.90;;;;;;5017073;28;19960;-70
2024/01/28 00:22:48;;;;;;;;;;;-1.40;99.90;;;;;;5007510;28;20168;-71
2024/01/28 00:25:14;;;;;;;;;;;-1.40;99.90;;;;;;5020857;28;20170;-70
2024/01/28 00:27:42;;;;;;;;;;;-1.40;99.90;;;;;;5014130;28;19964;-69
2024/01/28 00:30:09;;;;;;;;;;;-1.40;99.90;;;;;;5014786;28;19921;-70
2024/01/28 00:32:36;;;;;;;;;;;-1.40;99.90;;;;;;5008363;28;20242;-71
2024/01/28 00:35:04;;;;;;;;;;;-1.40;99.90;;;;;;5013934;28;19989;-70
2024/01/28 00:37:30;;;;;;;;;;;-1.50;99.90;;;;;;5021847;28;19927;-70
2024/01/28 00:39:57;;;;;;;;;;;-1.50;99.90;;;;;;5019218;28;19921;-70
2024/01/28 00:42:23;;;;;;;;;;;-1.60;99.90;;;;;;5024856;28;20014;-70
2024/01/28 00:44:51;;;;;;;;;;;-1.60;99.90;;;;;;5023497;28;19927;-70
2024/01/28 00:47:18;;;;;;;;;;;-1.60;99.90;;;;;;5010621;28;19953;-70
2024/01/28 00:49:45;;;;;;;;;;;-1.60;99.90;;;;;;5009718;28;20194;-70
2024/01/28 00:52:11;;;;;;;;;;;-1.60;99.90;;;;;;5023726;28;19922;-70
2024/01/28 00:54:38;;;;;;;;;;;-1.60;99.90;;;;;;5021417;28;20171;-70
2024/01/28 00:57:05;;;;;;;;;;;-1.60;99.90;;;;;;5019609;28;19921;-70
2024/01/28 00:59:31;;;;;;;;;;;-1.60;99.90;;;;;;5022911;28;19922;-70
2024/01/28 01:01:59;;;;;;;;;;;-1.60;99.90;;;;;;5013977;28;20223;-70
2024/01/28 01:04:26;;;;;;;;;;;-1.60;99.90;;;;;;5019656;28;19961;-71
2024/01/28 01:06:53;;;;;;;;;;;-1.60;99.90;;;;;;5016342;28;19928;-70
2024/01/28 01:09:19;;;;;;;;;;;-1.60;99.90;;;;;;5016213;28;19921;-69
2024/01/28 01:11:46;;;;;;;;;;;-1.60;99.90;;;;;;5015297;28;19984;-70
2024/01/28 01:14:12;;;;;;;;;;;-1.60;99.90;;;;;;5016654;28;19957;-70
2024/01/28 01:16:39;;;;;;;;;;;-1.60;99.90;;;;;;5024732;28;19953;-70
2024/01/28 01:19:07;;;;;;;;;;;-1.60;99.90;;;;;;5018052;28;19921;-69
2024/01/28 01:21:34;;;;;;;;;;;-1.70;99.90;;;;;;5006796;28;19957;-70
2024/01/28 01:24:00;;;;;;;;;;;-1.70;99.90;;;;;;5015572;28;19932;-69
2024/01/28 01:26:27;;;;;;;;;;;-1.70;99.90;;;;;;5022060;28;20165;-70
2024/01/28 01:28:53;;;;;;;;;;;-1.70;99.90;;;;;;5018786;28;19953;-71
2024/01/28 01:31:20;;;;;;;;;;;-1.80;99.90;;;;;;5006680;28;19984;-71
2024/01/28 01:33:46;;;;;;;;;;;-1.80;99.90;;;;;;5016014;28;19989;-69
2024/01/28 01:36:14;;;;;;;;;;;-1.80;99.90;;;;;;5015882;28;19917;-69
2024/01/28 01:38:40;;;;;;;;;;;-1.80;99.90;;;;;;5015490;28;19976;-70
2024/01/28 01:41:07;;;;;;;;;;;-1.80;99.90;;;;;;5022606;28;19953;-71
2024/01/28 01:43:34;;;;;;;;;;;-1.80;99.90;;;;;;5015895;28;20262;-70
2024/01/28 01:46:01;;;;;;;;;;;-1.80;99.90;;;;;;5016107;28;19992;-69
2024/01/28 01:48:28;;;;;;;;;;;-1.80;99.90;;;;;;5023266;28;19980;-69
2024/01/28 01:50:55;;;;;;;;;;;-1.90;99.90;;;;;;5023777;28;19953;-71
2024/01/28 01:53:23;;;;;;;;;;;-1.80;99.90;;;;;;5016483;28;19929;-69
2024/01/28 01:55:50;;;;;;;;;;;-1.80;99.90;;;;;;5013629;28;20184;-71
2024/01/28 01:58:16;;;;;;;;;;;-1.90;99.90;;;;;;5005395;28;19921;-70
2024/01/28 02:00:43;;;;;;;;;;;-1.80;99.90;;;;;;5014698;28;19985;-69
2024/01/28 02:03:10;;;;;;;;;;;-1.80;99.90;;;;;;5023843;28;19947;-70
2024/01/28 02:05:36;;;;;;;;;;;-1.80;99.90;;;;;;5008275;28;19992;-70
2024/01/28 02:08:03;;;;;;;;;;;-1.80;99.90;;;;;;5023146;28;19984;-69
2024/01/28 02:10:31;;;;;;;;;;;-1.80;99.90;;;;;;5014814;28;19929;-71
2024/01/28 02:12:58;;;;;;;;;;;-1.80;99.90;;;;;;5021841;28;19976;-69
2024/01/28 02:15:24;;;;;;;;;;;-1.80;99.90;;;;;;5022800;28;19922;-70
2024/01/28 02:17:52;;;;;;;;;;;-1.80;99.90;;;;;;5013175;28;19981;-70
2024/01/28 02:20:19;;;;;;;;;;;-1.80;99.90;;;;;;5011343;28;20214;-71
2024/01/28 02:22:45;;;;;;;;;;;-1.80;99.90;;;;;;5025681;28;19922;-69
2024/01/28 02:25:13;;;;;;;;;;;-1.80;99.90;;;;;;5013854;28;19985;-69
2024/01/28 02:27:40;;;;;;;;;;;-1.90;99.90;;;;;;5018500;28;19964;-69
2024/01/28 02:30:07;;;;;;;;;;;-1.90;99.90;;;;;;5027732;28;19956;-69
2024/01/28 02:32:34;;;;;;;;;;;-1.90;99.90;;;;;;5024440;28;19921;-70
2024/01/28 02:35:00;;;;;;;;;;;-1.90;99.90;;;;;;5021809;28;19928;-69
2024/01/28 02:37:27;;;;;;;;;;;-1.90;99.90;;;;;;5011473;28;19992;-70
2024/01/28 02:39:53;;;;;;;;;;;-1.90;99.90;;;;;;5013016;28;19984;-70
2024/01/28 02:42:21;;;;;;;;;;;-1.90;99.90;;;;;;5026061;28;19980;-69
2024/01/28 02:44:48;;;;;;;;;;;-1.90;99.90;;;;;;5019315;28;19959;-69
2024/01/28 02:47:15;;;;;;;;;;;-1.90;99.90;;;;;;5012631;28;19993;-70
2024/01/28 02:49:41;;;;;;;;;;;-1.90;99.90;;;;;;5011524;28;19922;-69
2024/01/28 02:52:08;;;;;;;;;;;-1.90;99.90;;;;;;5014071;28;19981;-69
2024/01/28 02:54:35;;;;;;;;;;;-1.90;99.90;;;;;;5010342;28;19928;-69
2024/01/28 02:57:02;;;;;;;;;;;-1.90;99.90;;;;;;5026300;28;19922;-69
2024/01/28 02:59:30;;;;;;;;;;;-1.90;99.90;;;;;;5010959;28;19928;-70
2024/01/28 03:01:57;;;;;;;;;;;-1.90;99.90;;;;;;5019913;28;19984;-69
2024/01/28 03:04:23;;;;;;;;;;;-1.90;99.90;;;;;;5018771;28;19926;-69
2024/01/28 03:06:50;;;;;;;;;;;-1.90;99.90;;;;;;5015221;28;20444;-69
2024/01/28 03:09:18;;;;;;;;;;;-1.90;99.90;;;;;;5016363;28;20118;-69
2024/01/28 03:11:45;;;;;;;;;;;-1.90;99.90;;;;;;5024732;28;19963;-69
2024/01/28 03:14:11;;;;;;;;;;;-1.90;99.90;;;;;;5018542;28;20250;-70
2024/01/28 03:16:39;;;;;;;;;;;-1.90;99.90;;;;;;5018192;28;19985;-70
2024/01/28 03:19:06;;;;;;;;;;;-2.00;99.90;;;;;;5018763;28;19928;-69
2024/01/28 03:21:33;;;;;;;;;;;-2.00;99.90;;;;;;5025844;28;19932;-71
2024/01/28 03:24:00;;;;;;;;;;;-2.00;99.90;;;;;;5014334;28;20262;-69
2024/01/28 03:26:26;;;;;;;;;;;-2.00;99.90;;;;;;5023999;28;19953;-69
2024/01/28 03:28:53;;;;;;;;;;;-2.00;99.90;;;;;;5015250;28;19985;-69
2024/01/28 03:31:20;;;;;;;;;;;-2.00;99.90;;;;;;5008761;28;20105;-69
2024/01/28 03:33:48;;;;;;;;;;;-2.00;99.90;;;;;;5008548;28;19921;-70
2024/01/28 03:36:14;;;;;;;;;;;-2.10;99.90;;;;;;5015778;28;19957;-69
2024/01/28 03:38:41;;;;;;;;;;;-2.10;99.90;;;;;;5017474;28;19952;-69
2024/01/28 03:41:07;;;;;;;;;;;-2.10;99.90;;;;;;5018033;28;20166;-70
2024/01/28 03:43:34;;;;;;;;;;;-2.10;99.90;;;;;;5010347;28;19957;-71
2024/01/28 03:46:01;;;;;;;;;;;-2.10;99.90;;;;;;5020316;28;20307;-70
2024/01/28 03:48:27;;;;;;;;;;;-2.10;99.90;;;;;;5024536;28;19980;-69
2024/01/28 03:50:55;;;;;;;;;;;-2.10;99.90;;;;;;5021904;28;19957;-70
2024/01/28 03:53:22;;;;;;;;;;;-2.10;99.90;;;;;;5022979;28;19952;-69
2024/01/28 03:55:49;;;;;;;;;;;-2.10;99.90;;;;;;5021031;28;19993;-70
2024/01/28 03:58:15;;;;;;;;;;;-2.10;99.90;;;;;;5022428;28;19928;-69
2024/01/28 04:00:42;;;;;;;;;;;-2.10;99.90;;;;;;5017988;28;20143;-71
2024/01/28 04:03:09;;;;;;;;;;;-2.20;99.90;;;;;;5024959;28;19921;-70
2024/01/28 04:05:36;;;;;;;;;;;-2.20;99.90;;;;;;5018423;28;19944;-69
2024/01/28 04:08:04;;;;;;;;;;;-2.20;99.90;;;;;;5024377;28;19984;-69
2024/01/28 04:10:31;;;;;;;;;;;-2.30;99.90;;;;;;5016384;28;19929;-70
2024/01/28 04:12:57;;;;;;;;;;;-2.30;99.90;;;;;;5012354;28;20194;-69
2024/01/28 04:15:24;;;;;;;;;;;-2.30;99.90;;;;;;5009488;28;19982;-69
2024/01/28 04:17:51;;;;;;;;;;;-2.20;99.90;;;;;;5014394;28;19921;-69
2024/01/28 04:20:18;;;;;;;;;;;-2.30;99.90;;;;;;5006688;28;19957;-70
2024/01/28 04:22:44;;;;;;;;;;;-2.20;99.90;;;;;;5015894;28;19967;-69
2024/01/28 04:25:12;;;;;;;;;;;-2.20;99.90;;;;;;5023478;28;19965;-70
2024/01/28 04:27:39;;;;;;;;;;;-2.30;99.90;;;;;;5010953;28;20194;-69
2024/01/28 04:30:08;;;;;;;;;;;-2.30;99.90;;;;;;5011620;28;19980;-70
2024/01/28 04:32:35;;;;;;;;;;;-2.30;99.90;;;;;;5017357;28;19960;-70
2024/01/28 04:35:02;;;;;;;;;;;-2.30;99.90;;;;;;5023750;28;19956;-71
2024/01/28 04:37:29;;;;;;;;;;;-2.30;99.90;;;;;;5016983;28;20231;-70
2024/01/28 04:39:56;;;;;;;;;;;-2.30;99.90;;;;;;5023411;28;19968;-69
2024/01/28 04:42:24;;;;;;;;;;;-2.30;99.90;;;;;;5008823;28;19922;-70
2024/01/28 04:44:51;;;;;;;;;;;-2.30;99.90;;;;;;5004722;28;19921;-70
2024/01/28 04:47:18;;;;;;;;;;;-2.30;99.90;;;;;;5013778;28;19980;-70
2024/01/28 04:49:45;;;;;;;;;;;-2.30;99.90;;;;;;5015561;28;19960;-71
2024/01/28 04:52:11;;;;;;;;;;;-2.30;99.90;;;;;;5025066;28;19956;-69
2024/01/28 04:54:38;;;;;;;;;;;-2.30;99.90;;;;;;5015202;28;19922;-70
2024/01/28 04:57:05;;;;;;;;;;;-2.30;99.90;;;;;;5012031;28;20243;-69
2024/01/28 04:59:33;;;;;;;;;;;-2.30;99.90;;;;;;5015206;28;19957;-69
2024/01/28 05:02:00;;;;;;;;;;;-2.30;99.90;;;;;;5024022;28;19925;-70
2024/01/28 05:04:26;;;;;;;;;;;-2.40;99.90;;;;;;5023319;28;20219;-70
2024/01/28 05:06:53;;;;;;;;;;;-2.40;99.90;;;;;;5009371;28;19963;-69
2024/01/28 05:09:20;;;;;;;;;;;-2.40;99.90;;;;;;5009186;28;20111;-70
2024/01/28 05:11:47;;;;;;;;;;;-2.40;99.90;;;;;;5017380;28;19922;-70
2024/01/28 05:14:14;;;;;;;;;;;-2.40;99.90;;;;;;5016632;28;20182;-70
2024/01/28 05:16:47;;;;;;;;;;;-2.40;99.90;;;;;;5012941;28;19930;-70
2024/01/28 05:19:13;;;;;;;;;;;-2.40;99.90;;;;;;5005672;28;19930;-69
2024/01/28 05:21:40;;;;;;;;;;;-2.40;99.90;;;;;;5012943;28;19964;-70
2024/01/28 05:24:07;;;;;;;;;;;-2.40;99.90;;;;;;5010575;28;20167;-71
2024/01/28 05:26:33;;;;;;;;;;;-2.40;99.90;;;;;;5005579;28;20340;-70
2024/01/28 05:29:05;;;;;;;;;;;-2.40;99.90;;;;;;5016922;28;19981;-69
2024/01/28 05:31:32;;;;;;;;;;;-2.40;99.90;;;;;;5008042;28;20015;-69
2024/01/28 05:34:00;;;;;;;;;;;-2.40;99.90;;;;;;5011393;28;19922;-71
2024/01/28 05:36:26;;;;;;;;;;;-2.40;99.90;;;;;;5014240;28;19957;-69
2024/01/28 05:38:54;;;;;;;;;;;-2.40;99.90;;;;;;5017392;28;19952;-70
2024/01/28 05:41:20;;;;;;;;;;;-2.40;99.90;;;;;;5022835;28;19928;-70
2024/01/28 05:43:47;;;;;;;;;;;-2.40;99.90;;;;;;5016551;28;20084;-70
2024/01/28 05:46:14;;;;;;;;;;;-2.50;99.90;;;;;;5024055;28;19992;-69
2024/01/28 05:48:40;;;;;;;;;;;-2.50;99.90;;;;;;5015115;28;19921;-71
2024/01/28 05:51:08;;;;;;;;;;;-2.50;99.90;;;;;;5017396;28;19972;-69
2024/01/28 05:53:35;;;;;;;;;;;-2.40;99.90;;;;;;5019900;28;19921;-69
2024/01/28 05:56:03;;;;;;;;;;;-2.40;99.90;;;;;;5010629;28;19921;-69
2024/01/28 05:58:30;;;;;;;;;;;-2.40;99.90;;;;;;5022550;28;20250;-70
2024/01/28 06:01:01;;;;;;;;;;;-2.40;99.90;;;;;;5012434;28;19922;-68
2024/01/28 06:03:27;;;;;;;;;;;-2.40;99.90;;;;;;5019898;28;19960;-70
2024/01/28 06:05:54;;;;;;;;;;;-2.40;99.90;;;;;;5016308;28;19989;-69
2024/01/28 06:08:23;;;;;;;;;;;-2.50;99.90;;;;;;5008707;28;19922;-69
2024/01/28 06:10:49;;;;;;;;;;;-2.50;99.90;;;;;;5005571;28;20152;-69
2024/01/28 06:13:16;;;;;;;;;;;-2.50;99.90;;;;;;5020188;28;19981;-70
2024/01/28 06:15:42;;;;;;;;;;;-2.50;99.90;;;;;;5016318;28;19996;-69
2024/01/28 06:18:09;;;;;;;;;;;-2.50;99.90;;;;;;5010031;28;19921;-70
2024/01/28 06:20:36;;;;;;;;;;;-2.50;99.90;;;;;;5006109;28;19968;-69
2024/01/28 06:23:02;;;;;;;;;;;-2.50;99.90;;;;;;5005656;28;19922;-69
2024/01/28 06:25:31;;;;;;;;;;;-2.50;99.90;;;;;;5013272;28;19928;-70
2024/01/28 06:27:57;;;;;;;;;;;-2.50;99.90;;;;;;5011005;28;19929;-71
2024/01/28 06:30:26;;;;;;;;;;;-2.40;99.90;;;;;;5018305;28;19980;-69
2024/01/28 06:32:52;;;;;;;;;;;-2.40;99.90;;;;;;5022852;28;19976;-70
2024/01/28 06:35:19;;;;;;;;;;;-2.40;99.90;;;;;;5008123;28;20249;-69
2024/01/28 06:37:45;;;;;;;;;;;-2.40;99.90;;;;;;5005703;28;20254;-69
2024/01/28 06:40:12;;;;;;;;;;;-2.40;99.90;;;;;;5005378;28;19997;-69
2024/01/28 06:42:40;;;;;;;;;;;-2.40;99.90;;;;;;5005869;28;19968;-69
2024/01/28 06:45:08;;;;;;;;;;;-2.40;99.90;;;;;;5005409;28;20170;-69
2024/01/28 06:47:35;;;;;;;;;;;-2.40;99.90;;;;;;5006240;28;19929;-68
2024/01/28 06:50:02;;;;;;;;;;;-2.40;99.90;;;;;;5005258;28;19945;-69
2024/01/28 06:52:29;;;;;;;;;;;-2.40;99.90;;;;;;5019253;28;20266;-70
2024/01/28 06:54:55;;;;;;;;;;;-2.40;99.90;;;;;;5021435;28;19922;-69
2024/01/28 06:57:22;;;;;;;;;;;-2.40;99.90;;;;;;5021309;28;19989;-70
2024/01/28 06:59:50;;;;;;;;;;;-2.40;99.90;;;;;;5021747;28;19980;-70
2024/01/28 07:02:16;;;;;;;;;;;-2.30;99.90;;;;;;5022377;28;19984;-69
2024/01/28 07:04:43;;;;;;;;;;;-2.30;99.90;;;;;;5021451;28;19944;-68
2024/01/28 07:07:10;;;;;;;;;;;-2.30;99.90;;;;;;5015832;28;19986;-69
2024/01/28 07:09:36;;;;;;;;;;;-2.30;99.90;;;;;;5008781;28;19928;-69
2024/01/28 07:12:03;;;;;;;;;;;-2.30;99.90;;;;;;5008768;28;19960;-69
2024/01/28 07:14:30;;;;;;;;;;;-2.30;99.90;;;;;;5009437;28;19926;-69
2024/01/28 07:16:58;;;;;;;;;;;-2.30;99.90;;;;;;5013215;28;20171;-69
2024/01/28 07:19:25;;;;;;;;;;;-2.30;99.90;;;;;;5024030;28;20242;-70
2024/01/28 07:21:51;;;;;;;;;;;-2.30;99.90;;;;;;5026566;28;19922;-68
2024/01/28 07:24:19;;;;;;;;;;;-2.30;99.90;;;;;;5011945;28;19921;-70
2024/01/28 07:26:46;;;;;;;;;;;-2.20;99.90;;;;;;5026429;28;19926;-69
2024/01/28 07:29:12;;;;;;;;;;;-2.30;99.90;;;;;;5026180;28;19984;-69
2024/01/28 07:31:40;;;;;;;;;;;-2.20;99.90;;;;;;5025642;28;20238;-69
2024/01/28 07:34:08;;;;;;;;;;;-2.30;99.90;;;;;;5016885;28;20215;-69
2024/01/28 07:36:34;;;;;;;;;;;-2.30;99.90;;;;;;5009878;28;19964;-68
2024/01/28 07:39:04;;;;;;;;;;;-2.30;99.90;;;;;;5008306;28;19985;-70
2024/01/28 07:41:34;;;;;;;;;;;-2.30;99.90;;;;;;5008813;28;19964;-69
2024/01/28 07:44:01;;;;;;;;;;;-2.20;99.90;;;;;;5008434;28;19957;-69
2024/01/28 07:46:27;;;;;;;;;;;-2.20;99.90;;;;;;5009317;28;19997;-70
2024/01/28 07:48:54;;;;;;;;;;;-2.20;99.90;;;;;;5012300;28;19957;-69
2024/01/28 07:51:22;;;;;;;;;;;-2.10;99.90;;;;;;5011439;28;19984;-69
2024/01/28 07:53:48;;;;;;;;;;;-2.10;99.90;;;;;;5008249;28;19925;-69
2024/01/28 07:56:16;;;;;;;;;;;-2.00;99.90;;;;;;5014833;28;19922;-68
2024/01/28 07:58:42;;;;;;;;;;;-2.00;99.90;;;;;;5023527;28;19926;-70
2024/01/28 08:01:09;;;;;;;;;;;-2.00;99.90;;;;;;5024796;28;19957;-70
2024/01/28 08:03:36;;;;;;;;;;;-1.90;99.90;;;;;;5023590;28;20200;-70
2024/01/28 08:06:01;;;;;;;;;;;-1.80;99.90;;;;;;5024101;28;19928;-69
2024/01/28 08:08:30;;;;;;;;;;;-1.80;99.90;;;;;;5017741;28;19917;-69
2024/01/28 08:10:56;;;;;;;;;;;-1.70;99.90;;;;;;5008001;28;20139;-68
2024/01/28 08:13:23;;;;;;;;;;;-1.70;99.90;;;;;;5008586;28;19957;-70
2024/01/28 08:15:50;;;;;;;;;;;-1.70;99.90;;;;;;5007684;28;19989;-71
2024/01/28 08:18:16;;;;;;;;;;;-1.60;99.90;;;;;;5007616;28;19957;-69
2024/01/28 08:20:43;;;;;;;;;;;-1.60;99.90;;;;;;5007265;28;19944;-69
2024/01/28 08:23:09;;;;;;;;;;;-1.50;99.90;;;;;;5019918;28;19980;-71
2024/01/28 08:25:37;;;;;;;;;;;-1.50;99.90;;;;;;5023391;28;19981;-70
2024/01/28 08:28:04;;;;;;;;;;;-1.40;99.90;;;;;;5024154;28;19965;-69
2024/01/28 08:30:31;;;;;;;;;;;-1.40;99.90;;;;;;5022796;28;19964;-69
2024/01/28 08:32:57;;;;;;;;;;;-1.30;99.90;;;;;;5023446;28;20163;-68
2024/01/28 08:35:24;;;;;;;;;;;-1.30;99.90;;;;;;5022873;28;20174;-71
2024/01/28 08:37:51;;;;;;;;;;;-1.20;99.90;;;;;;5014392;28;19985;-69
2024/01/28 08:40:19;;;;;;;;;;;-1.20;99.90;;;;;;5007289;28;19981;-69
2024/01/28 08:42:47;;;;;;;;;;;-1.10;99.90;;;;;;5020688;28;19980;-70
2024/01/28 08:45:13;;;;;;;;;;;-1.10;99.90;;;;;;5006691;28;19957;-70
2024/01/28 08:47:40;;;;;;;;;;;-1.00;99.90;;;;;;5007819;28;19984;-70
2024/01/28 08:50:08;;;;;;;;;;;-0.90;99.90;;;;;;5006771;28;19990;-70
2024/01/28 08:52:35;;;;;;;;;;;-0.80;99.90;;;;;;5007766;28;19964;-70
2024/01/28 08:55:02;;;;;;;;;;;-0.80;99.90;;;;;;5014401;28;19957;-69
2024/01/28 08:57:29;;;;;;;;;;;-0.70;99.90;;;;;;5014799;28;20092;-69
2024/01/28 08:59:57;;;;;;;;;;;-0.70;99.90;;;;;;5023208;28;19922;-70
2024/01/28 09:02:23;;;;;;;;;;;-0.60;99.90;;;;;;5024711;28;19963;-69
2024/01/28 09:04:50;;;;;;;;;;;-0.60;99.90;;;;;;5020551;28;20144;-68
2024/01/28 09:07:17;;;;;;;;;;;-0.40;99.90;;;;;;5013838;28;20020;-71
2024/01/28 09:09:43;;;;;;;;;;;-0.40;99.90;;;;;;5024373;28;19957;-69
2024/01/28 09:12:10;;;;;;;;;;;-0.30;99.90;;;;;;5023413;28;19960;-70
2024/01/28 09:14:37;;;;;;;;;;;-0.20;99.90;;;;;;5022312;28;19921;-68
2024/01/28 09:17:05;;;;;;;;;;;-0.20;99.90;;;;;;5010742;28;19981;-69
2024/01/28 09:19:32;;;;;;;;;;;-0.10;99.90;;;;;;5016347;28;20178;-68
2024/01/28 09:21:59;;;;;;;;;;;0.00;99.90;;;;;;5022476;28;19929;-68
2024/01/28 09:24:25;;;;;;;;;;;0.20;99.90;;;;;;5022720;28;20160;-67
2024/01/28 09:26:52;;;;;;;;;;;0.20;99.90;;;;;;5022597;28;19984;-69
2024/01/28 09:29:20;;;;;;;;;;;0.40;99.90;;;;;;5023331;28;19945;-69
2024/01/28 09:31:47;;;;;;;;;;;0.50;99.90;;;;;;5022076;28;20211;-69
2024/01/28 09:34:15;;;;;;;;;;;0.60;99.90;;;;;;5022335;28;19921;-69
2024/01/28 09:36:42;;;;;;;;;;;0.70;99.90;;;;;;5021456;28;19922;-69
2024/01/28 09:39:09;;;;;;;;;;;0.80;99.90;;;;;;5023023;28;20004;-69
2024/01/28 09:41:42;;;;;;;;;;;0.90;99.90;;;;;;5022304;28;19980;-69
2024/01/28 09:44:09;;;;;;;;;;;1.10;99.90;;;;;;5022355;28;20218;-69
2024/01/28 09:46:37;;;;;;;;;;;1.20;99.90;;;;;;5007271;28;19928;-69
2024/01/28 09:49:04;;;;;;;;;;;1.30;99.90;;;;;;5016424;28;19921;-69
2024/01/28 09:51:32;;;;;;;;;;;1.30;99.90;;;;;;5021393;28;20001;-70
2024/01/28 09:53:59;;;;;;;;;;;1.30;99.90;;;;;;5022369;28;19960;-70
2024/01/28 09:56:26;;;;;;;;;;;1.30;99.90;;;;;;5014449;28;20211;-69
2024/01/28 09:58:53;;;;;;;;;;;1.40;99.90;;;;;;5005349;28;20160;-69
2024/01/28 10:01:20;;;;;;;;;;;1.40;99.90;;;;;;5005349;28;19921;-73
2024/01/28 10:03:47;;;;;;;;;;;1.50;99.90;;;;;;5008030;28;19948;-71
2024/01/28 10:06:13;;;;;;;;;;;1.60;99.90;;;;;;5021749;28;20147;-72
2024/01/28 10:08:41;;;;;;;;;;;1.80;99.90;;;;;;5022901;28;19984;-70
2024/01/28 10:11:09;;;;;;;;;;;1.90;99.90;;;;;;5022807;28;19996;-69
2024/01/28 10:13:36;;;;;;;;;;;2.00;99.90;;;;;;5022532;28;20343;-72
2024/01/28 10:16:02;;;;;;;;;;;2.10;99.90;;;;;;5017070;28;20243;-69
2024/01/28 10:18:29;;;;;;;;;;;2.20;99.90;;;;;;5013341;28;19921;-71
2024/01/28 10:20:56;;;;;;;;;;;2.30;99.90;;;;;;5021998;28;19992;-71
2024/01/28 10:23:22;;;;;;;;;;;2.50;99.90;;;;;;5019625;28;19988;-70
2024/01/28 10:25:50;;;;;;;;;;;2.60;99.90;;;;;;5008518;28;19992;-70
2024/01/28 10:28:18;;;;;;;;;;;2.70;99.90;;;;;;5004850;28;20009;-70
2024/01/28 10:30:44;;;;;;;;;;;2.80;99.90;;;;;;5005040;28;20324;-70
2024/01/28 10:33:11;;;;;;;;;;;3.00;99.90;;;;;;5010069;28;19992;-71
2024/01/28 10:35:37;;;;;;;;;;;3.10;99.90;;;;;;5005849;28;19992;-70
2024/01/28 10:38:04;;;;;;;;;;;3.30;99.90;;;;;;5011832;28;19960;-70
2024/01/28 10:40:33;;;;;;;;;;;3.50;99.90;;;;;;5016636;28;19955;-71
2024/01/28 10:43:02;;;;;;;;;;;3.60;99.90;;;;;;5015979;28;19922;-69
2024/01/28 10:45:30;;;;;;;;;;;3.70;99.90;;;;;;5022451;28;19952;-70
2024/01/28 10:48:00;;;;;;;;;;;3.90;99.90;;;;;;5013037;28;19957;-72
2024/01/28 10:50:32;;;;;;;;;;;4.00;99.90;;;;;;5018378;28;19956;-70
2024/01/28 10:52:59;;;;;;;;;;;4.30;99.90;;;;;;5021881;28;20350;-71
2024/01/28 10:55:26;;;;;;;;;;;4.40;99.90;;;;;;5009871;28;20131;-70
2024/01/28 10:57:54;;;;;;;;;;;4.60;99.90;;;;;;5011656;28;19930;-70
2024/01/28 11:00:22;;;;;;;;;;;4.90;99.90;;;;;;5009423;28;19955;-71
2024/01/28 11:02:49;;;;;;;;;;;5.00;99.90;;;;;;5020324;28;19922;-72
2024/01/28 11:05:16;;;;;;;;;;;5.30;99.90;;;;;;5022947;28;19921;-70
2024/01/28 11:07:43;;;;;;;;;;;5.40;99.90;;;;;;5014123;28;19922;-72
2024/01/28 11:10:10;;;;;;;;;;;5.60;99.90;;;;;;5015343;28;19988;-71
2024/01/28 11:12:37;;;;;;;;;;;5.80;99.90;;;;;;5017133;28;19996;-71
2024/01/28 11:15:04;;;;;;;;;;;5.90;99.90;;;;;;5015138;28;20018;-72
2024/01/28 11:17:33;;;;;;;;;;;6.10;99.90;;;;;;5015882;28;20163;-72
2024/01/28 11:20:05;;;;;;;;;;;6.30;99.90;;;;;;5020166;28;19945;-73
2024/01/28 11:22:45;;;;;;;;;;;6.50;99.90;;;;;;5019109;28;20236;-71
2024/01/28 11:25:12;;;;;;;;;;;6.60;99.90;;;;;;5011667;28;19959;-70
2024/01/28 11:27:38;;;;;;;;;;;6.80;99.90;;;;;;5008885;28;19988;-71
2024/01/28 11:30:10;;;;;;;;;;;7.00;99.90;;;;;;5020808;28;19947;-72
2024/01/28 11:32:38;;;;;;;;;;;7.10;99.90;;;;;;5025621;28;19948;-71
2024/01/28 11:35:05;;;;;;;;;;;7.20;99.90;;;;;;5015609;28;20009;-71
2024/01/28 11:37:34;;;;;;;;;;;7.40;99.90;;;;;;5024185;28;19956;-71
2024/01/28 11:40:04;;;;;;;;;;;7.50;99.90;;;;;;5021656;28;20008;-72
2024/01/28 11:42:31;;;;;;;;;;;7.70;99.90;;;;;;5012364;28;19957;-71
2024/01/28 11:44:58;;;;;;;;;;;7.80;99.90;;;;;;5007830;28;19960;-70
2024/01/28 11:47:24;;;;;;;;;;;7.90;99.90;;;;;;5014178;28;20265;-69
2024/01/28 11:49:52;;;;;;;;;;;8.10;99.90;;;;;;5015108;28;19930;-69
2024/01/28 11:52:19;;;;;;;;;;;8.20;99.90;;;;;;5012399;28;19952;-69
2024/01/28 11:54:47;;;;;;;;;;;8.30;99.90;;;;;;5015064;28;19961;-70
2024/01/28 11:57:14;;;;;;;;;;;8.40;99.90;;;;;;5013295;28;19967;-71
2024/01/28 11:59:40;;;;;;;;;;;8.50;99.90;;;;;;5015225;28;20295;-69
2024/01/28 12:02:07;;;;;;;;;;;8.60;99.90;;;;;;5016585;28;20265;-69
2024/01/28 12:04:34;;;;;;;;;;;8.80;99.90;;;;;;5010655;28;19929;-70
2024/01/28 12:07:03;;;;;;;;;;;9.00;99.90;;;;;;5013000;28;19967;-68
2024/01/28 12:09:30;;;;;;;;;;;9.10;99.90;;;;;;5010249;28;19967;-69
2024/01/28 12:11:57;;;;;;;;;;;9.30;99.90;;;;;;5014229;28;19929;-69
2024/01/28 12:14:24;;;;;;;;;;;9.40;99.90;;;;;;5011470;28;20001;-69
2024/01/28 12:16:50;;;;;;;;;;;9.40;99.90;;;;;;5010948;28;19964;-70
2024/01/28 12:19:19;;;;;;;;;;;9.50;99.90;;;;;;5019618;28;19950;-70
2024/01/28 12:21:47;;;;;;;;;;;9.70;99.90;;;;;;5012955;28;19969;-69
2024/01/28 12:24:15;;;;;;;;;;;9.70;99.90;;;;;;5021256;28;19960;-69
2024/01/28 12:26:43;;;;;;;;;;;9.80;99.90;;;;;;5009216;28;19960;-70
2024/01/28 12:29:10;;;;;;;;;;;9.90;99.90;;;;;;5014559;28;19928;-70
2024/01/28 12:31:37;;;;;;;;;;;10.10;99.90;;;;;;5007302;28;19996;-71
2024/01/28 12:34:13;;;;;;;;;;;10.20;99.90;;;;;;5011742;28;20214;-69
2024/01/28 12:36:40;;;;;;;;;;;10.30;99.90;;;;;;5008752;28;19921;-69
2024/01/28 12:39:07;;;;;;;;;;;10.40;99.90;;;;;;5011160;28;20295;-69
2024/01/28 12:41:34;;;;;;;;;;;10.30;99.90;;;;;;5009336;28;20235;-69
2024/01/28 12:44:02;;;;;;;;;;;10.30;99.90;;;;;;5009813;28;20350;-70
2024/01/28 12:46:29;;;;;;;;;;;10.30;99.90;;;;;;5009415;28;19930;-71
2024/01/28 12:48:57;;;;;;;;;;;10.40;99.90;;;;;;5009800;28;19997;-70
2024/01/28 12:51:24;;;;;;;;;;;10.50;99.90;;;;;;5012771;28;19929;-70
2024/01/28 12:53:51;;;;;;;;;;;10.50;99.90;;;;;;5011302;28;19963;-70
2024/01/28 12:56:17;;;;;;;;;;;10.60;99.90;;;;;;5010877;28;19921;-71
2024/01/28 12:58:45;;;;;;;;;;;10.70;99.90;;;;;;5007157;28;19956;-69
2024/01/28 13:01:12;;;;;;;;;;;10.90;99.90;;;;;;5013648;28;19961;-68
2024/01/28 13:03:39;;;;;;;;;;;10.90;99.90;;;;;;5025159;28;19972;-70
2024/01/28 13:06:06;;;;;;;;;;;11.00;99.90;;;;;;5024145;28;19935;-75
2024/01/28 13:08:32;;;;;;;;;;;11.10;99.90;;;;;;5018911;28;19996;-72
2024/01/28 13:11:02;;;;;;;;;;;11.20;99.90;;;;;;5017155;28;19921;-71
2024/01/28 13:13:31;;;;;;;;;;;11.30;99.90;;;;;;5023132;28;19943;-70
2024/01/28 13:15:59;;;;;;;;;;;11.40;99.90;;;;;;5022735;28;20108;-70
2024/01/28 13:18:26;;;;;;;;;;;11.60;99.90;;;;;;5029051;28;19998;-71
2024/01/28 13:20:53;;;;;;;;;;;11.60;99.90;;;;;;5016378;28;19928;-72
2024/01/28 13:23:19;;;;;;;;;;;11.70;99.90;;;;;;5012504;28;19921;-70
2024/01/28 13:25:46;;;;;;;;;;;11.80;99.90;;;;;;5017862;28;19928;-72
2024/01/28 13:28:13;;;;;;;;;;;11.90;99.90;;;;;;5014953;28;19949;-71
2024/01/28 13:30:39;;;;;;;;;;;12.00;99.90;;;;;;5015313;28;19960;-70
2024/01/28 13:33:07;;;;;;;;;;;12.10;99.90;;;;;;5018407;28;20306;-70
2024/01/28 13:35:34;;;;;;;;;;;12.30;99.90;;;;;;5014011;28;19960;-72
2024/01/28 13:38:00;;;;;;;;;;;12.40;99.90;;;;;;5013685;28;19921;-72
2024/01/28 13:40:27;;;;;;;;;;;12.40;99.90;;;;;;5014445;28;19957;-71
2024/01/28 13:42:53;;;;;;;;;;;12.50;99.90;;;;;;5014846;28;19929;-72
2024/01/28 13:45:19;;;;;;;;;;;12.40;99.90;;;;;;5015153;28;19917;-71
2024/01/28 13:47:46;;;;;;;;;;;12.40;99.90;;;;;;5012106;28;19925;-70
2024/01/28 13:50:14;;;;;;;;;;;12.50;99.90;;;;;;5018284;28;19952;-71
2024/01/28 13:52:40;;;;;;;;;;;12.50;99.90;;;;;;5013655;28;19929;-70
2024/01/28 13:55:10;;;;;;;;;;;12.40;99.90;;;;;;5019938;28;19940;-72
2024/01/28 13:57:38;;;;;;;;;;;12.40;99.90;;;;;;5015037;28;19929;-71
2024/01/28 14:00:06;;;;;;;;;;;12.20;99.80;;;;;;5017858;28;19944;-71
2024/01/28 14:02:33;;;;;;;;;;;12.20;99.90;;;;;;5014117;28;19925;-70
2024/01/28 14:04:59;;;;;;;;;;;12.10;99.90;;;;;;5014238;28;19953;-72
2024/01/28 14:07:27;;;;;;;;;;;12.10;99.90;;;;;;5007421;28;19922;-71
2024/01/28 14:09:54;;;;;;;;;;;12.00;99.20;;;;;;5008759;28;19949;-70
2024/01/28 14:12:21;;;;;;;;;;;11.90;99.00;;;;;;5018309;28;19989;-70
2024/01/28 14:14:47;;;;;;;;;;;11.60;99.50;;;;;;5004952;28;19922;-72
2024/01/28 14:17:14;;;;;;;;;;;11.50;99.10;;;;;;5010887;28;20096;-71